Time;durP1;ratioP1;P1;durP2;ratioP2;P2;SDS_P1;SDS_P2;PMS_P1;PMS_P2;Temp;Humidity;BMP_temperature;BMP_pressure;BME280_temperature;BME280_humidity;BME280_pressure;Samples;Min_cycle;Max_cycle;Signal;HPM_P1;HPM_P2
2021/08/09 00:00:09;;;;;;;2.03;1.40;;;13.80;99.90;;;;;;5016125;28;20187;-76
2021/08/09 00:02:35;;;;;;;4.87;2.13;;;13.70;99.90;;;;;;5015616;28;20594;-76
2021/08/09 00:05:01;;;;;;;2.53;1.30;;;13.80;99.90;;;;;;5015770;28;20190;-76
2021/08/09 00:07:26;;;;;;;1.47;1.17;;;13.80;99.90;;;;;;5015629;28;20230;-75
2021/08/09 00:09:53;;;;;;;4.40;1.50;;;13.90;99.90;;;;;;5015531;28;20206;-76
2021/08/09 00:12:20;;;;;;;2.00;1.53;;;14.00;99.90;;;;;;5015652;28;20589;-75
2021/08/09 00:14:45;;;;;;;1.97;1.43;;;14.00;99.90;;;;;;5014311;28;20193;-77
2021/08/09 00:17:11;;;;;;;4.10;1.60;;;14.00;99.90;;;;;;5015790;28;20183;-75
2021/08/09 00:19:37;;;;;;;2.60;1.63;;;13.90;99.90;;;;;;5015528;28;20207;-75
2021/08/09 00:22:03;;;;;;;3.33;1.27;;;;;;;;;;5014398;28;20179;-75
2021/08/09 00:24:29;;;;;;;2.97;1.53;;;13.70;99.90;;;;;;5015325;28;20273;-75
2021/08/09 00:26:55;;;;;;;2.77;1.13;;;13.60;99.90;;;;;;5015392;28;20765;-75
2021/08/09 00:29:21;;;;;;;4.60;1.67;;;13.60;99.90;;;;;;5015395;28;20199;-75
2021/08/09 00:31:46;;;;;;;1.47;1.30;;;13.60;99.90;;;;;;5014881;28;20664;-77
2021/08/09 00:34:12;;;;;;;3.10;1.70;;;13.60;99.90;;;;;;5015454;28;20190;-76
2021/08/09 00:36:38;;;;;;;2.97;1.60;;;13.50;99.90;;;;;;5014024;28;20186;-76
2021/08/09 00:39:03;;;;;;;3.20;1.67;;;13.50;99.90;;;;;;5013727;28;20241;-76
2021/08/09 00:41:29;;;;;;;3.00;1.63;;;13.50;99.90;;;;;;5015205;28;20183;-76
2021/08/09 00:43:54;;;;;;;3.63;1.30;;;13.50;99.90;;;;;;5013771;28;20270;-76
2021/08/09 00:46:20;;;;;;;2.17;1.50;;;13.50;99.90;;;;;;5015415;28;20666;-76
2021/08/09 00:48:46;;;;;;;2.33;1.50;;;13.50;99.90;;;;;;5014913;28;20282;-78
2021/08/09 00:51:12;;;;;;;1.70;1.30;;;13.50;99.90;;;;;;5014983;28;20183;-75
2021/08/09 00:53:38;;;;;;;2.60;1.50;;;13.50;99.90;;;;;;5014882;28;20185;-75
2021/08/09 00:56:04;;;;;;;2.07;1.50;;;13.40;99.90;;;;;;5014746;28;20182;-76
2021/08/09 00:58:31;;;;;;;1.60;1.30;;;13.40;99.90;;;;;;5014978;28;20640;-76
2021/08/09 01:00:57;;;;;;;2.20;1.40;;;13.40;99.90;;;;;;5014713;28;20668;-75
2021/08/09 01:03:22;;;;;;;3.17;1.57;;;13.40;99.90;;;;;;5014721;28;20183;-76
2021/08/09 01:05:50;;;;;;;2.30;1.60;;;13.30;99.90;;;;;;5014490;28;20210;-77
2021/08/09 01:08:43;;;;;;;3.13;1.40;;;13.30;99.90;;;;;;5014739;28;20195;-75
2021/08/09 01:11:17;;;;;;;1.40;1.30;;;13.30;99.90;;;;;;5013786;28;20185;-76
2021/08/09 01:14:12;;;;;;;2.03;1.43;;;13.30;99.90;;;;;;5013271;28;20175;-75
2021/08/09 01:16:40;;;;;;;1.73;1.20;;;13.20;99.90;;;;;;5014602;28;20186;-75
2021/08/09 01:19:48;;;;;;;3.33;1.50;;;13.20;99.90;;;;;;5014867;28;20211;-76
2021/08/09 01:22:47;;;;;;;2.20;1.40;;;13.10;99.90;;;;;;5014191;28;20587;-75
2021/08/09 01:25:22;;;;;;;2.93;1.53;;;13.10;99.90;;;;;;5013003;28;20186;-75
2021/08/09 01:27:50;;;;;;;2.13;1.50;;;12.90;99.90;;;;;;5013166;28;20178;-75
2021/08/09 01:30:16;;;;;;;2.67;1.77;;;;;;;;;;5014349;28;20187;-76
2021/08/09 01:32:44;;;;;;;2.27;1.63;;;13.00;99.90;;;;;;5014302;28;20186;-75
2021/08/09 01:35:12;;;;;;;2.57;1.47;;;13.10;99.90;;;;;;5014163;28;20184;-76
2021/08/09 01:37:42;;;;;;;3.73;1.30;;;13.00;99.90;;;;;;5013800;28;20180;-77
2021/08/09 01:40:09;;;;;;;2.60;1.40;;;13.00;99.90;;;;;;5014081;28;20186;-75
2021/08/09 01:42:37;;;;;;;5.07;1.70;;;12.90;99.90;;;;;;5012760;28;20174;-75
2021/08/09 01:45:05;;;;;;;2.07;1.80;;;12.80;99.90;;;;;;5013229;28;20175;-75
2021/08/09 01:47:34;;;;;;;2.90;1.60;;;12.80;99.90;;;;;;5013976;28;20198;-75
2021/08/09 01:50:01;;;;;;;1.73;1.63;;;12.90;99.90;;;;;;5014089;28;20256;-75
2021/08/09 01:52:27;;;;;;;2.10;1.73;;;12.80;99.90;;;;;;5012506;28;20177;-75
2021/08/09 01:54:53;;;;;;;3.30;1.53;;;12.60;99.90;;;;;;5012650;28;20184;-75
2021/08/09 01:57:19;;;;;;;4.13;1.90;;;12.80;99.90;;;;;;5013973;28;20187;-77
2021/08/09 01:59:46;;;;;;;4.30;1.33;;;12.70;99.90;;;;;;5012361;28;20206;-75
2021/08/09 02:02:11;;;;;;;2.97;1.70;;;12.70;99.90;;;;;;5013664;28;20179;-75
2021/08/09 02:04:37;;;;;;;2.83;1.47;;;12.80;99.90;;;;;;5012362;28;20178;-75
2021/08/09 02:07:03;;;;;;;4.13;1.70;;;12.70;99.90;;;;;;5010970;28;20309;-78
2021/08/09 02:09:29;;;;;;;1.43;1.33;;;12.80;99.90;;;;;;5019549;28;20202;-75
2021/08/09 02:12:02;;;;;;;2.20;1.50;;;12.80;99.90;;;;;;5011686;28;20175;-76
2021/08/09 02:14:32;;;;;;;2.70;1.67;;;12.80;99.90;;;;;;5012477;28;20200;-75
2021/08/09 02:17:20;;;;;;;1.83;1.30;;;12.80;99.90;;;;;;5012179;28;20644;-75
2021/08/09 02:19:48;;;;;;;1.77;1.67;;;12.80;99.90;;;;;;5013409;28;20230;-75
2021/08/09 02:22:42;;;;;;;2.83;1.50;;;12.80;99.90;;;;;;5012340;28;20211;-76
2021/08/09 02:25:12;;;;;;;1.60;1.33;;;12.70;99.90;;;;;;5009034;28;20262;-76
2021/08/09 02:27:58;;;;;;;2.23;1.30;;;12.60;99.90;;;;;;5013481;28;20248;-75
2021/08/09 02:30:25;;;;;;;1.80;1.70;;;12.50;99.90;;;;;;5028598;23;20230;-76
2021/08/09 02:32:54;;;;;;;2.27;1.27;;;12.60;99.90;;;;;;5013442;28;20182;-76
2021/08/09 02:35:21;;;;;;;2.50;1.53;;;12.50;99.90;;;;;;5013306;28;20609;-76
2021/08/09 02:37:49;;;;;;;4.00;1.60;;;12.40;99.90;;;;;;5010950;28;20190;-78
2021/08/09 02:40:15;;;;;;;2.43;1.53;;;12.50;99.90;;;;;;5011603;28;20598;-79
2021/08/09 02:42:41;;;;;;;4.33;1.40;;;12.40;99.90;;;;;;5012816;28;20178;-76
2021/08/09 02:45:08;;;;;;;4.10;1.70;;;12.40;99.90;;;;;;5013308;28;20645;-76
2021/08/09 02:47:37;;;;;;;3.87;1.50;;;12.50;99.90;;;;;;5008331;28;20611;-77
2021/08/09 02:50:08;;;;;;;2.37;1.70;;;12.50;99.90;;;;;;5006651;28;20193;-76
2021/08/09 02:52:37;;;;;;;1.40;1.30;;;12.60;99.90;;;;;;5013331;28;20174;-77
2021/08/09 02:55:03;;;;;;;3.93;1.97;;;12.60;99.90;;;;;;5014320;28;20346;-76
2021/08/09 02:57:31;;;;;;;1.87;1.37;;;12.60;99.90;;;;;;5016923;28;20178;-77
2021/08/09 02:59:57;;;;;;;2.70;1.50;;;12.60;99.90;;;;;;5015256;28;20171;-77
2021/08/09 03:02:25;;;;;;;2.67;1.30;;;12.70;99.90;;;;;;5016844;28;20559;-76
2021/08/09 03:04:51;;;;;;;3.20;1.60;;;12.60;99.90;;;;;;5016869;28;20174;-76
2021/08/09 03:07:19;;;;;;;1.80;1.50;;;12.60;99.90;;;;;;5016632;28;20243;-77
2021/08/09 03:09:45;;;;;;;3.97;1.37;;;12.70;99.90;;;;;;5016744;28;20256;-77
2021/08/09 03:12:16;;;;;;;3.17;1.80;;;12.70;99.90;;;;;;5016797;28;20178;-76
2021/08/09 03:14:47;;;;;;;1.27;1.17;;;12.70;99.90;;;;;;5003487;28;20644;-76
2021/08/09 03:17:12;;;;;;;1.80;1.40;;;12.70;99.90;;;;;;5016819;28;20287;-76
2021/08/09 03:19:38;;;;;;;1.50;1.40;;;12.60;99.90;;;;;;5016600;28;20259;-76
2021/08/09 03:22:04;;;;;;;3.60;1.60;;;12.60;99.90;;;;;;5016498;28;20224;-76
2021/08/09 03:24:30;;;;;;;3.53;1.57;;;12.60;99.90;;;;;;5016449;28;20175;-76
2021/08/09 03:26:56;;;;;;;2.60;1.40;;;12.60;99.90;;;;;;5016525;28;20586;-76
2021/08/09 03:29:22;;;;;;;2.07;1.70;;;12.60;99.90;;;;;;5016459;28;20642;-76
2021/08/09 03:31:48;;;;;;;1.90;1.10;;;12.60;99.90;;;;;;5016243;28;20219;-76
2021/08/09 03:34:14;;;;;;;1.77;1.30;;;12.50;99.90;;;;;;5016511;28;20214;-77
2021/08/09 03:36:45;;;;;;;5.17;1.40;;;12.50;99.90;;;;;;5016283;28;20206;-76
2021/08/09 03:39:11;;;;;;;2.37;1.27;;;12.50;99.90;;;;;;5016571;28;20183;-76
2021/08/09 03:41:37;;;;;;;1.83;1.53;;;12.50;99.90;;;;;;5014880;28;20579;-76
2021/08/09 03:44:04;;;;;;;2.67;1.47;;;12.50;99.90;;;;;;5015846;28;20175;-76
2021/08/09 03:46:30;;;;;;;4.23;1.50;;;12.40;99.90;;;;;;5016233;28;20277;-77
2021/08/09 03:48:56;;;;;;;1.57;1.30;;;12.40;99.90;;;;;;5016142;28;20262;-76
2021/08/09 03:51:21;;;;;;;1.90;1.40;;;12.40;99.90;;;;;;5016041;28;20281;-76
2021/08/09 03:53:47;;;;;;;3.10;1.30;;;12.30;99.90;;;;;;5015841;28;20179;-76
2021/08/09 03:56:12;;;;;;;2.50;1.40;;;12.30;99.90;;;;;;5016076;28;20186;-76
2021/08/09 03:58:38;;;;;;;1.80;1.50;;;12.40;99.90;;;;;;5014541;28;20222;-76
2021/08/09 04:01:06;;;;;;;2.03;1.47;;;12.30;99.90;;;;;;5014080;28;20213;-76
2021/08/09 04:03:31;;;;;;;1.40;1.30;;;12.30;99.90;;;;;;5015164;28;20183;-78
2021/08/09 04:05:57;;;;;;;2.80;1.50;;;12.20;99.90;;;;;;5017738;28;20201;-76
2021/08/09 04:08:22;;;;;;;1.67;1.30;;;12.20;99.90;;;;;;5020683;28;20189;-78
2021/08/09 04:10:48;;;;;;;2.70;1.50;;;12.20;99.90;;;;;;5012871;28;20340;-76
2021/08/09 04:13:14;;;;;;;1.63;1.43;;;12.10;99.90;;;;;;5015602;28;20187;-76
2021/08/09 04:15:39;;;;;;;2.57;1.43;;;12.10;99.90;;;;;;5014857;28;20189;-77
2021/08/09 04:18:05;;;;;;;2.67;1.40;;;12.20;99.90;;;;;;5015879;28;20185;-76
2021/08/09 04:20:32;;;;;;;2.93;1.90;;;12.20;99.90;;;;;;5015485;28;20206;-76
2021/08/09 04:22:57;;;;;;;2.60;1.40;;;12.20;99.90;;;;;;5015125;28;20194;-77
2021/08/09 04:25:25;;;;;;;3.33;1.33;;;12.10;99.90;;;;;;5015250;28;20175;-76
2021/08/09 04:27:50;;;;;;;3.50;1.43;;;12.20;99.90;;;;;;5015243;28;20172;-76
2021/08/09 04:30:16;;;;;;;4.97;2.00;;;12.20;99.90;;;;;;5015198;28;20207;-76
2021/08/09 04:32:42;;;;;;;2.33;1.50;;;12.20;99.90;;;;;;5015300;28;20168;-76
2021/08/09 04:35:10;;;;;;;2.67;1.90;;;12.20;99.90;;;;;;5015254;28;20181;-76
2021/08/09 04:37:36;;;;;;;2.27;2.03;;;12.20;99.90;;;;;;5015169;28;20179;-76
2021/08/09 04:40:03;;;;;;;3.03;1.40;;;12.20;99.90;;;;;;5015259;28;20184;-77
2021/08/09 04:42:29;;;;;;;1.70;1.53;;;12.20;99.90;;;;;;5015076;28;20644;-76
2021/08/09 04:44:55;;;;;;;3.77;1.60;;;12.20;99.90;;;;;;5023513;28;20227;-76
2021/08/09 04:47:20;;;;;;;2.70;1.50;;;12.10;99.90;;;;;;5014986;28;20233;-76
2021/08/09 04:49:46;;;;;;;2.10;1.60;;;12.10;99.90;;;;;;5014816;28;20183;-76
2021/08/09 04:52:11;;;;;;;2.30;1.80;;;12.20;99.90;;;;;;5015032;28;20184;-76
2021/08/09 04:54:37;;;;;;;1.83;1.40;;;12.10;99.90;;;;;;5014750;28;20329;-77
2021/08/09 04:57:03;;;;;;;2.83;1.70;;;12.10;99.90;;;;;;5012241;28;20194;-78
2021/08/09 04:59:28;;;;;;;1.63;1.53;;;12.10;99.90;;;;;;5011182;28;20716;-76
2021/08/09 05:01:54;;;;;;;1.60;1.50;;;12.10;99.90;;;;;;5011346;28;20282;-76
2021/08/09 05:04:20;;;;;;;1.50;1.33;;;12.10;99.90;;;;;;5013640;28;20548;-76
2021/08/09 05:06:47;;;;;;;2.07;1.40;;;11.90;99.90;;;;;;5009987;28;20230;-78
2021/08/09 05:09:12;;;;;;;2.00;1.67;;;12.00;99.90;;;;;;5013552;28;20224;-76
2021/08/09 05:11:38;;;;;;;2.27;2.03;;;12.00;99.90;;;;;;5010985;28;20672;-76
2021/08/09 05:14:04;;;;;;;2.97;1.87;;;12.10;99.90;;;;;;5012330;28;20254;-77
2021/08/09 05:16:33;;;;;;;1.67;1.40;;;12.10;99.90;;;;;;5013954;28;20184;-77
2021/08/09 05:19:02;;;;;;;2.13;1.80;;;12.20;99.90;;;;;;5011181;28;20594;-77
2021/08/09 05:21:32;;;;;;;2.67;1.70;;;12.30;99.90;;;;;;5008679;28;20195;-77
2021/08/09 05:23:58;;;;;;;4.47;1.80;;;12.30;99.90;;;;;;5007206;28;20190;-76
2021/08/09 05:26:24;;;;;;;2.13;1.60;;;12.30;99.90;;;;;;5013669;28;20198;-75
2021/08/09 05:28:49;;;;;;;2.20;1.50;;;12.30;99.90;;;;;;5011197;28;20549;-76
2021/08/09 05:31:15;;;;;;;3.73;1.80;;;12.40;99.90;;;;;;5013593;28;20286;-76
2021/08/09 05:33:42;;;;;;;4.40;1.60;;;12.40;99.90;;;;;;5011150;28;20643;-76
2021/08/09 05:36:07;;;;;;;1.90;1.70;;;12.40;99.90;;;;;;5008436;28;20185;-76
2021/08/09 05:38:33;;;;;;;2.90;1.97;;;12.50;99.90;;;;;;5010661;28;20183;-75
2021/08/09 05:41:00;;;;;;;4.57;1.80;;;12.50;99.90;;;;;;5010688;28;20202;-77
2021/08/09 05:43:26;;;;;;;2.10;1.67;;;12.60;99.90;;;;;;5007007;28;20181;-76
2021/08/09 05:45:52;;;;;;;3.00;1.70;;;12.60;99.90;;;;;;5013424;28;20208;-76
2021/08/09 05:48:18;;;;;;;5.80;1.90;;;12.70;99.90;;;;;;5010975;28;20180;-76
2021/08/09 05:50:43;;;;;;;2.13;1.60;;;12.80;99.90;;;;;;5009855;28;20204;-77
2021/08/09 05:53:09;;;;;;;4.33;1.93;;;12.80;99.90;;;;;;5013895;28;20198;-77
2021/08/09 05:55:34;;;;;;;3.27;1.90;;;12.90;99.90;;;;;;5012686;28;20185;-77
2021/08/09 05:58:00;;;;;;;4.20;1.83;;;12.90;99.90;;;;;;5013136;28;20659;-76
2021/08/09 06:00:26;;;;;;;6.20;2.37;;;13.00;99.90;;;;;;5014005;28;20216;-77
2021/08/09 06:02:51;;;;;;;3.87;1.83;;;13.00;99.90;;;;;;5013730;28;20225;-77
2021/08/09 06:05:17;;;;;;;3.40;2.20;;;12.90;99.90;;;;;;5013714;28;20175;-77
2021/08/09 06:07:43;;;;;;;3.40;2.00;;;13.00;99.90;;;;;;5012309;28;20197;-77
2021/08/09 06:10:09;;;;;;;3.50;2.10;;;13.10;99.90;;;;;;5013649;28;20191;-76
2021/08/09 06:12:36;;;;;;;3.10;2.40;;;13.20;99.90;;;;;;5008447;28;20174;-78
2021/08/09 06:15:04;;;;;;;2.67;2.13;;;13.30;99.90;;;;;;5011432;28;20229;-77
2021/08/09 06:17:31;;;;;;;2.40;2.00;;;13.30;99.90;;;;;;5011871;28;20186;-77
2021/08/09 06:19:57;;;;;;;4.53;2.40;;;13.40;99.90;;;;;;5013683;28;20185;-77
2021/08/09 06:22:22;;;;;;;5.17;2.30;;;13.50;99.90;;;;;;5011658;28;20182;-77
2021/08/09 06:24:48;;;;;;;4.57;2.23;;;13.70;99.90;;;;;;5012262;28;20187;-77
2021/08/09 06:27:13;;;;;;;3.83;2.20;;;13.70;99.90;;;;;;5013396;28;20662;-78
2021/08/09 06:29:39;;;;;;;3.63;2.07;;;13.70;99.90;;;;;;5013065;28;20164;-77
2021/08/09 06:32:05;;;;;;;3.50;1.67;;;13.80;99.90;;;;;;5013199;28;20730;-77
2021/08/09 06:34:30;;;;;;;3.33;1.70;;;14.00;99.90;;;;;;5013775;28;20183;-77
2021/08/09 06:36:56;;;;;;;3.63;1.80;;;14.10;99.90;;;;;;5013483;28;20179;-76
2021/08/09 06:39:21;;;;;;;2.93;1.60;;;14.20;99.90;;;;;;5011048;28;20179;-76
2021/08/09 06:41:47;;;;;;;5.53;1.80;;;14.30;99.90;;;;;;5010047;28;20201;-77
2021/08/09 06:44:13;;;;;;;1.53;1.43;;;14.30;99.90;;;;;;5005462;28;20606;-75
2021/08/09 06:46:39;;;;;;;3.10;1.67;;;14.40;99.90;;;;;;5007295;28;20190;-76
2021/08/09 06:49:05;;;;;;;2.00;1.63;;;14.40;99.90;;;;;;5007000;28;20187;-75
2021/08/09 06:51:31;;;;;;;3.77;1.87;;;14.50;99.90;;;;;;5012107;28;20195;-76
2021/08/09 06:53:56;;;;;;;2.37;1.40;;;14.60;99.90;;;;;;5011894;28;20263;-77
2021/08/09 06:56:22;;;;;;;1.57;1.47;;;14.70;99.90;;;;;;5013253;28;20318;-77
2021/08/09 06:58:47;;;;;;;4.77;1.80;;;14.80;99.90;;;;;;5011495;28;20179;-77
2021/08/09 07:01:13;;;;;;;4.63;1.90;;;15.00;99.90;;;;;;5013107;28;20203;-77
2021/08/09 07:03:39;;;;;;;2.30;1.50;;;15.00;99.90;;;;;;5011159;28;20194;-78
2021/08/09 07:06:05;;;;;;;1.50;1.20;;;15.00;99.90;;;;;;5011195;28;20199;-77
2021/08/09 07:08:30;;;;;;;3.60;1.47;;;15.00;99.90;;;;;;5003702;28;20180;-77
2021/08/09 07:10:56;;;;;;;2.27;2.00;;;14.90;99.90;;;;;;5012343;28;20203;-78
2021/08/09 07:13:22;;;;;;;5.50;1.83;;;15.00;99.90;;;;;;5008490;28;20218;-78
2021/08/09 07:15:47;;;;;;;2.50;1.80;;;15.10;99.90;;;;;;5011538;28;20188;-76
2021/08/09 07:18:16;;;;;;;2.20;1.73;;;15.20;99.90;;;;;;5013013;28;20191;-77
2021/08/09 07:20:42;;;;;;;1.83;1.50;;;15.20;99.90;;;;;;5007451;28;20207;-78
2021/08/09 07:23:07;;;;;;;4.40;1.97;;;15.30;99.90;;;;;;5009474;28;20258;-76
2021/08/09 07:25:33;;;;;;;1.93;1.73;;;15.20;99.90;;;;;;5012757;28;20183;-76
2021/08/09 07:27:59;;;;;;;3.47;1.70;;;15.40;99.90;;;;;;5011427;28;20179;-78
2021/08/09 07:30:25;;;;;;;10.07;2.00;;;15.50;99.90;;;;;;5011447;28;20218;-78
2021/08/09 07:32:50;;;;;;;6.23;2.00;;;15.60;99.90;;;;;;5011452;28;20173;-79
2021/08/09 07:35:16;;;;;;;4.73;2.10;;;15.70;99.90;;;;;;5011421;28;20192;-78
2021/08/09 07:37:41;;;;;;;2.63;1.33;;;15.80;99.90;;;;;;5011519;28;20187;-79
2021/08/09 07:40:08;;;;;;;1.80;1.57;;;16.00;99.90;;;;;;5011396;28;20208;-79
2021/08/09 07:42:34;;;;;;;2.90;1.60;;;16.00;99.90;;;;;;5011852;28;20193;-78
2021/08/09 07:44:59;;;;;;;1.87;1.27;;;16.00;99.90;;;;;;5014642;28;20190;-78
2021/08/09 07:47:25;;;;;;;2.23;1.80;;;16.00;99.90;;;;;;5014373;28;20321;-78
2021/08/09 07:49:51;;;;;;;4.13;1.70;;;16.00;99.90;;;;;;5011858;28;20181;-78
2021/08/09 07:52:17;;;;;;;2.90;1.33;;;16.00;99.90;;;;;;5012072;28;20183;-78
2021/08/09 07:54:42;;;;;;;5.60;1.30;;;16.00;99.90;;;;;;5014625;28;20176;-76
2021/08/09 07:57:08;;;;;;;2.57;1.40;;;16.10;99.90;;;;;;5014809;28;20179;-78
2021/08/09 07:59:34;;;;;;;1.50;1.30;;;16.20;99.90;;;;;;5014585;28;20245;-78
2021/08/09 08:02:02;;;;;;;4.53;1.70;;;16.30;99.90;;;;;;5014107;28;20696;-77
2021/08/09 08:04:28;;;;;;;3.00;1.40;;;16.40;99.90;;;;;;5014372;28;20720;-78
2021/08/09 08:06:54;;;;;;;2.43;1.20;;;16.50;99.90;;;;;;5014198;28;20213;-78
2021/08/09 08:09:20;;;;;;;3.70;1.33;;;16.50;99.90;;;;;;5014488;28;20181;-80
2021/08/09 08:11:46;;;;;;;0.93;0.87;;;16.50;99.90;;;;;;5016964;28;20201;-79
2021/08/09 08:14:12;;;;;;;4.40;1.30;;;16.60;99.90;;;;;;5018057;28;20205;-80
2021/08/09 08:16:38;;;;;;;6.23;1.20;;;16.70;99.90;;;;;;5017337;28;20652;-77
2021/08/09 08:19:04;;;;;;;3.17;1.33;;;16.80;99.90;;;;;;5015145;28;20195;-79
2021/08/09 08:21:30;;;;;;;3.37;1.40;;;16.90;99.90;;;;;;5015409;28;20201;-77
2021/08/09 08:23:56;;;;;;;2.27;1.30;;;17.10;99.90;;;;;;5015874;28;20294;-79
2021/08/09 08:26:21;;;;;;;13.83;1.67;;;17.20;99.90;;;;;;5015441;28;20281;-79
2021/08/09 08:28:47;;;;;;;1.63;1.30;;;17.30;99.90;;;;;;5015383;28;20183;-76
2021/08/09 08:31:13;;;;;;;3.43;1.23;;;17.40;99.90;;;;;;5039359;23;20692;-75
2021/08/09 08:33:38;;;;;;;4.60;1.20;;;17.50;99.90;;;;;;5012180;28;20186;-75
2021/08/09 08:36:04;;;;;;;2.47;1.20;;;17.50;99.90;;;;;;5012341;28;20268;-75
2021/08/09 08:38:30;;;;;;;1.80;1.40;;;17.60;99.90;;;;;;5013708;28;20177;-74
2021/08/09 08:40:57;;;;;;;2.37;1.30;;;17.60;99.90;;;;;;5013075;28;20255;-75
2021/08/09 08:43:25;;;;;;;2.60;1.30;;;17.70;99.90;;;;;;5013633;28;20534;-75
2021/08/09 08:45:58;;;;;;;2.83;1.30;;;17.90;99.90;;;;;;5013262;28;20666;-75
2021/08/09 08:48:24;;;;;;;3.37;1.50;;;18.00;99.90;;;;;;5012031;28;20174;-75
2021/08/09 08:50:51;;;;;;;2.53;1.57;;;18.20;99.90;;;;;;5012250;28;20179;-73
2021/08/09 08:53:18;;;;;;;1.77;1.10;;;18.40;99.90;;;;;;5014670;28;20273;-75
2021/08/09 08:55:44;;;;;;;2.63;1.27;;;18.50;99.90;;;;;;5014919;28;20261;-74
2021/08/09 08:58:10;;;;;;;3.23;1.20;;;18.70;99.90;;;;;;5013451;28;20172;-74
2021/08/09 09:00:43;;;;;;;3.63;1.50;;;18.90;99.90;;;;;;5013182;28;20225;-74
2021/08/09 09:03:39;;;;;;;3.60;1.50;;;19.00;99.90;;;;;;5014539;28;20167;-74
2021/08/09 09:06:09;;;;;;;3.20;1.40;;;19.10;99.90;;;;;;5009253;28;20322;-82
2021/08/09 09:08:43;;;;;;;3.23;1.23;;;19.20;99.90;;;;;;5029870;28;20654;-83
2021/08/09 09:11:30;;;;;;;2.50;1.17;;;19.20;99.90;;;;;;5029461;28;20214;-82
2021/08/09 09:14:01;;;;;;;5.50;1.73;;;19.40;99.90;;;;;;5029959;28;20266;-81
2021/08/09 09:16:43;;;;;;;2.43;1.30;;;19.30;99.90;;;;;;5029914;28;20194;-82
2021/08/09 09:19:09;;;;;;;2.03;1.30;;;19.30;99.90;;;;;;5029295;28;20190;-82
2021/08/09 09:21:57;;;;;;;2.93;1.33;;;19.40;99.90;;;;;;5030943;28;20194;-82
2021/08/09 09:24:25;;;;;;;2.83;1.50;;;19.40;99.90;;;;;;5028280;28;20666;-82
2021/08/09 09:26:59;;;;;;;1.70;0.90;;;19.60;99.90;;;;;;5029956;28;20290;-83
2021/08/09 09:29:26;;;;;;;1.63;1.00;;;19.70;99.90;;;;;;5030254;28;20190;-82
2021/08/09 09:31:53;;;;;;;2.93;1.00;;;19.90;99.90;;;;;;5030121;28;20218;-80
2021/08/09 09:34:21;;;;;;;2.93;1.23;;;20.10;99.90;;;;;;5029185;28;20649;-83
2021/08/09 09:36:57;;;;;;;2.67;1.30;;;20.20;99.90;;;;;;5027496;28;20179;-82
2021/08/09 09:39:38;;;;;;;1.37;1.20;;;20.10;99.90;;;;;;5026521;28;20178;-83
2021/08/09 09:42:14;;;;;;;1.60;1.23;;;20.10;99.90;;;;;;5028118;28;20199;-82
2021/08/09 09:44:41;;;;;;;1.80;1.20;;;20.30;99.90;;;;;;5027636;28;20170;-82
2021/08/09 09:47:27;;;;;;;2.93;1.33;;;20.40;99.90;;;;;;5027574;28;20207;-82
2021/08/09 09:49:59;;;;;;;3.10;1.63;;;20.60;99.90;;;;;;5029102;28;20179;-82
2021/08/09 09:52:29;;;;;;;1.70;1.40;;;20.60;99.90;;;;;;5028895;28;20195;-83
2021/08/09 09:54:58;;;;;;;3.63;1.03;;;20.60;99.90;;;;;;5028735;28;20190;-83
2021/08/09 09:57:30;;;;;;;1.37;1.10;;;20.70;99.90;;;;;;5026578;28;20286;-77
2021/08/09 09:59:58;;;;;;;1.33;1.10;;;20.90;99.90;;;;;;5011211;28;20186;-77
2021/08/09 10:06:37;;;;;;;4.83;1.30;;;21.00;99.90;;;;;;4939723;29;20210;-77
2021/08/09 10:28:04;;;;;;;;;;;;;;;;;;;;;
2021/08/09 10:41:54;;;;;;;1.23;0.83;;;22.10;99.90;;;;;;4875843;29;20294;-79
2021/08/09 11:16:34;;;;;;;;;;;;;;;;;;;;;
2021/08/09 11:20:21;;;;;;;;;;;;;;;;;;;;;
2021/08/09 11:29:59;;;;;;;;;;;;;;;;;;;;;
2021/08/09 11:44:09;;;;;;;;;;;;;;;;;;;;;
2021/08/09 11:47:11;;;;;;;1.93;0.70;;;23.80;99.90;;;;;;4898186;29;20203;-77
2021/08/09 11:50:36;;;;;;;1.47;0.87;;;23.80;99.90;;;;;;4899074;29;20266;-78
2021/08/09 12:04:11;;;;;;;;;;;;;;;;;;;;;
2021/08/09 12:21:21;;;;;;;;;;;;;;;;;;;;;
2021/08/09 12:34:19;;;;;;;2.03;0.97;;;24.40;99.90;;;;;;4852008;29;20205;-78
2021/08/09 12:36:56;;;;;;;3.03;0.93;;;24.40;99.90;;;;;;4831221;29;20181;-77
2021/08/09 12:46:39;;;;;;;1.43;0.90;;;24.80;99.90;;;;;;4861159;29;20211;-79
2021/08/09 12:49:54;;;;;;;;;;;;;;;;;;;;;
2021/08/09 12:53:02;;;;;;;2.00;0.87;;;25.00;99.90;;;;;;4933954;29;20209;-80
2021/08/09 12:55:40;;;;;;;1.47;0.93;;;25.00;99.90;;;;;;4911487;29;20261;-80
2021/08/09 13:09:04;;;;;;;2.60;0.80;;;25.10;99.90;;;;;;4857080;29;20196;-79
2021/08/09 13:11:40;;;;;;;2.67;0.73;;;24.90;99.90;;;;;;4953941;28;20216;-80
2021/08/09 13:14:26;;;;;;;1.40;0.90;;;24.80;99.90;;;;;;4977337;28;20207;-79
2021/08/09 13:16:51;;;;;;;1.47;0.70;;;24.80;99.90;;;;;;4977673;28;20203;-80
2021/08/09 13:19:21;;;;;;;1.10;0.80;;;24.80;99.90;;;;;;4977753;28;20181;-80
2021/08/09 13:21:58;;;;;;;1.80;0.93;;;25.00;99.90;;;;;;4977513;28;20215;-80
2021/08/09 13:24:26;;;;;;;1.23;0.90;;;24.90;99.90;;;;;;4976159;28;20259;-78
2021/08/09 13:26:57;;;;;;;1.77;0.80;;;24.80;99.90;;;;;;4972508;28;20205;-78
2021/08/09 13:29:28;;;;;;;1.77;1.10;;;24.70;99.90;;;;;;4963931;28;20229;-78
2021/08/09 13:31:54;;;;;;;1.60;0.97;;;24.70;99.90;;;;;;4971038;28;20645;-77
2021/08/09 13:34:25;;;;;;;1.00;0.77;;;24.70;99.90;;;;;;4970923;28;20205;-79
2021/08/09 13:36:51;;;;;;;1.53;0.80;;;24.60;99.90;;;;;;4967719;28;20213;-78
2021/08/09 13:39:20;;;;;;;1.87;0.80;;;24.60;99.90;;;;;;4971921;28;20180;-80
2021/08/09 13:41:51;;;;;;;2.03;1.10;;;24.60;99.90;;;;;;4972293;28;20219;-79
2021/08/09 13:44:28;;;;;;;1.00;0.90;;;24.30;99.90;;;;;;4970180;28;20199;-79
2021/08/09 13:47:00;;;;;;;1.03;0.80;;;24.10;99.90;;;;;;4969799;28;20199;-78
2021/08/09 13:50:21;;;;;;;1.13;0.93;;;23.70;99.90;;;;;;4975634;28;20179;-79
2021/08/09 13:54:03;;;;;;;;;;;;;;;;;;;;;
2021/08/09 14:00:13;;;;;;;2.00;1.03;;;23.90;99.90;;;;;;4896476;29;20191;-79
2021/08/09 14:03:46;;;;;;;2.93;1.00;;;24.00;99.90;;;;;;4901932;29;20332;-79
2021/08/09 14:11:07;;;;;;;1.30;0.90;;;24.00;99.90;;;;;;4846424;29;20187;-77
2021/08/09 14:13:36;;;;;;;2.47;0.87;;;23.90;99.90;;;;;;4860037;29;20270;-78
2021/08/09 14:16:05;;;;;;;1.47;0.93;;;23.80;99.90;;;;;;4964808;28;20188;-78
2021/08/09 14:18:31;;;;;;;3.10;1.00;;;23.90;99.90;;;;;;4984424;28;20685;-82
2021/08/09 14:20:56;;;;;;;0.80;0.80;;;23.80;99.90;;;;;;4980502;28;20255;-82
2021/08/09 14:23:22;;;;;;;1.83;0.83;;;23.60;99.90;;;;;;4978360;28;20191;-82
2021/08/09 14:25:48;;;;;;;1.30;1.00;;;23.50;99.90;;;;;;4977823;28;20185;-82
2021/08/09 14:28:13;;;;;;;0.83;0.80;;;23.40;99.90;;;;;;4979215;28;20261;-82
2021/08/09 14:30:39;;;;;;;2.37;1.10;;;23.40;99.90;;;;;;4979176;28;20176;-82
2021/08/09 14:33:08;;;;;;;2.87;1.00;;;23.30;99.90;;;;;;5007204;23;20591;-81
2021/08/09 14:35:37;;;;;;;2.63;1.07;;;23.30;99.90;;;;;;4998510;28;20183;-82
2021/08/09 14:38:03;;;;;;;0.90;0.83;;;23.30;99.90;;;;;;4985229;28;20585;-82
2021/08/09 14:40:29;;;;;;;1.57;0.80;;;23.30;99.90;;;;;;4999558;28;20210;-82
2021/08/09 14:42:54;;;;;;;2.43;1.30;;;23.30;99.90;;;;;;5009807;28;20669;-82
2021/08/09 14:45:20;;;;;;;2.17;1.00;;;23.20;99.90;;;;;;5019026;28;20543;-81
2021/08/09 14:47:46;;;;;;;1.80;0.80;;;23.20;99.90;;;;;;5017726;28;20218;-82
2021/08/09 14:50:12;;;;;;;3.90;1.30;;;23.20;99.90;;;;;;5018334;28;20560;-83
2021/08/09 14:52:38;;;;;;;2.87;1.10;;;23.10;99.90;;;;;;5026559;28;20226;-81
2021/08/09 14:55:05;;;;;;;1.90;0.90;;;23.10;99.90;;;;;;5026931;28;20179;-82
2021/08/09 14:57:30;;;;;;;0.97;0.80;;;23.10;99.90;;;;;;5024994;28;20528;-82
2021/08/09 14:59:56;;;;;;;2.20;1.17;;;23.20;99.90;;;;;;5024982;28;20187;-82
2021/08/09 15:02:22;;;;;;;1.90;0.97;;;23.10;99.90;;;;;;5023325;28;20262;-82
2021/08/09 15:04:49;;;;;;;2.87;1.20;;;23.00;99.90;;;;;;5026666;28;20199;-82
2021/08/09 15:07:15;;;;;;;1.93;1.00;;;23.00;99.90;;;;;;5024016;28;20191;-81
2021/08/09 15:09:41;;;;;;;2.47;1.10;;;22.80;99.90;;;;;;5022964;28;20323;-82
2021/08/09 15:12:07;;;;;;;1.03;1.00;;;22.90;99.90;;;;;;5023097;28;20258;-82
2021/08/09 15:14:32;;;;;;;1.60;0.90;;;22.90;99.90;;;;;;5023682;28;20171;-82
2021/08/09 15:16:58;;;;;;;2.67;1.07;;;22.90;99.90;;;;;;5023998;28;20182;-80
2021/08/09 15:19:25;;;;;;;2.70;1.07;;;22.80;99.90;;;;;;5016055;28;20214;-80
2021/08/09 15:21:51;;;;;;;2.80;0.90;;;22.90;99.90;;;;;;5008478;28;20210;-79
2021/08/09 15:24:16;;;;;;;4.03;1.17;;;22.80;99.90;;;;;;5018662;28;20179;-79
2021/08/09 15:26:42;;;;;;;4.13;1.20;;;22.80;99.90;;;;;;5018209;28;20206;-79
2021/08/09 15:29:08;;;;;;;2.07;0.90;;;22.80;99.90;;;;;;5014080;28;20182;-79
2021/08/09 15:31:33;;;;;;;4.83;1.20;;;22.80;99.90;;;;;;5018220;28;20661;-79
2021/08/09 15:33:59;;;;;;;2.23;1.20;;;22.80;99.90;;;;;;5016894;28;20179;-81
2021/08/09 15:36:25;;;;;;;2.60;1.17;;;22.90;99.90;;;;;;5013061;28;20218;-80